createdAt,value
2018-06-04T00:00:49.267Z,0
2018-06-04T00:01:51.258Z,0
2018-06-04T00:02:53.269Z,0
2018-06-04T00:03:55.263Z,0
2018-06-04T00:04:57.270Z,0
2018-06-04T00:05:59.273Z,0
2018-06-04T00:07:01.278Z,0
2018-06-04T00:08:03.664Z,0
2018-06-04T00:09:05.661Z,0
2018-06-04T00:10:07.656Z,0
2018-06-04T00:11:09.660Z,0
2018-06-04T00:12:11.650Z,0
2018-06-04T00:13:14.041Z,0
2018-06-04T00:14:16.036Z,0
2018-06-04T00:15:18.044Z,0
2018-06-04T00:16:20.331Z,0
2018-06-04T00:17:22.328Z,0
2018-06-04T00:18:24.327Z,0
2018-06-04T00:19:26.713Z,0
2018-06-04T00:20:28.711Z,0
2018-06-04T00:21:30.722Z,0
2018-06-04T00:22:32.725Z,0
2018-06-04T00:23:34.722Z,0
2018-06-04T00:24:36.714Z,0
2018-06-04T00:25:38.720Z,0
2018-06-04T00:26:40.993Z,0
2018-06-04T00:27:42.995Z,0
2018-06-04T00:28:45.563Z,0
2018-06-04T00:29:47.570Z,0
2018-06-04T00:30:49.571Z,0
2018-06-04T00:31:51.565Z,0
2018-06-04T00:32:53.861Z,0
2018-06-04T00:33:55.869Z,0
2018-06-04T00:34:58.147Z,0
2018-06-04T00:36:00.156Z,0
2018-06-04T00:37:02.161Z,0
2018-06-04T00:38:04.141Z,0
2018-06-04T00:39:06.143Z,0
2018-06-04T00:40:08.139Z,0
2018-06-04T00:41:10.145Z,0
2018-06-04T00:42:12.146Z,0
2018-06-04T00:43:14.145Z,0
2018-06-04T00:44:16.143Z,0
2018-06-04T00:45:18.128Z,0
2018-06-04T00:46:20.122Z,0
2018-06-04T00:47:22.127Z,0
2018-06-04T00:48:24.120Z,0
2018-06-04T00:49:26.124Z,0
2018-06-04T00:50:28.123Z,0
2018-06-04T00:51:30.124Z,0
2018-06-04T00:52:32.122Z,0
2018-06-04T00:53:34.118Z,0
2018-06-04T00:54:36.121Z,0
2018-06-04T00:55:38.120Z,0
2018-06-04T00:56:40.109Z,0
2018-06-04T00:57:42.113Z,0
2018-06-04T00:58:44.115Z,0
2018-06-04T00:59:46.115Z,0
2018-06-04T01:00:48.116Z,0
2018-06-04T01:01:50.893Z,0
2018-06-04T01:02:52.895Z,0
2018-06-04T01:03:54.878Z,0
2018-06-04T01:04:57.165Z,0
2018-06-04T01:05:59.174Z,0
2018-06-04T01:07:01.168Z,0
2018-06-04T01:08:03.460Z,0
2018-06-04T01:09:05.463Z,0
2018-06-04T01:10:07.887Z,0
2018-06-04T01:11:09.838Z,0
2018-06-04T01:12:11.851Z,0
2018-06-04T01:13:13.851Z,0
2018-06-04T01:14:16.144Z,0
2018-06-04T01:15:18.137Z,0
2018-06-04T01:16:20.130Z,0
2018-06-04T01:17:22.435Z,0
2018-06-04T01:18:24.419Z,0
2018-06-04T01:19:27.384Z,0
2018-06-04T01:20:29.679Z,0
2018-06-04T01:21:31.972Z,0
2018-06-04T01:22:34.255Z,0
2018-06-04T01:23:36.252Z,0
2018-06-04T01:24:38.254Z,0
2018-06-04T01:25:40.262Z,0
2018-06-04T01:26:42.258Z,0
2018-06-04T01:27:44.262Z,0
2018-06-04T01:28:46.269Z,0
2018-06-04T01:29:48.253Z,0
2018-06-04T01:30:50.258Z,0
2018-06-04T01:31:52.641Z,0
2018-06-04T01:32:54.637Z,0
2018-06-04T01:33:56.909Z,0
2018-06-04T01:34:59.193Z,0
2018-06-04T01:36:01.880Z,0
2018-06-04T01:37:03.868Z,0
2018-06-04T01:38:06.146Z,0
2018-06-04T01:39:08.153Z,0
2018-06-04T01:40:10.154Z,0
2018-06-04T01:41:12.162Z,0
2018-06-04T01:42:14.160Z,0
2018-06-04T01:43:16.150Z,0
2018-06-04T01:44:18.151Z,0
2018-06-04T01:45:20.528Z,0
2018-06-04T01:46:22.517Z,0
2018-06-04T01:47:24.514Z,0
2018-06-04T01:48:26.898Z,0
2018-06-04T01:49:28.901Z,0
2018-06-04T01:50:30.899Z,0
2018-06-04T01:51:32.890Z,0
2018-06-04T01:52:34.886Z,0
2018-06-04T01:53:36.881Z,0
2018-06-04T01:54:38.893Z,0
2018-06-04T01:55:40.887Z,0
2018-06-04T01:56:42.883Z,0
2018-06-04T01:57:44.881Z,0
2018-06-04T01:58:47.155Z,0
2018-06-04T01:59:49.713Z,0
2018-06-04T02:00:51.735Z,4
2018-06-04T02:01:53.730Z,4
2018-06-04T02:02:55.731Z,0
2018-06-04T02:03:58.115Z,0
2018-06-04T02:05:00.777Z,4
2018-06-04T02:06:02.790Z,4
2018-06-04T02:07:04.788Z,4
2018-06-04T02:08:06.785Z,4
2018-06-04T02:09:08.791Z,4
2018-06-04T02:10:11.057Z,8
2018-06-04T02:11:13.064Z,4
2018-06-04T02:12:15.339Z,8
2018-06-04T02:13:18.006Z,8
2018-06-04T02:14:20.001Z,12
2018-06-04T02:15:22.578Z,12
2018-06-04T02:16:24.580Z,12
2018-06-04T02:17:26.568Z,12
2018-06-04T02:18:28.849Z,12
2018-06-04T02:19:31.145Z,16
2018-06-04T02:20:33.419Z,20
2018-06-04T02:21:35.418Z,20
2018-06-04T02:22:37.411Z,24
2018-06-04T02:23:39.413Z,28
2018-06-04T02:24:41.688Z,32
2018-06-04T02:25:43.700Z,36
2018-06-04T02:26:45.693Z,40
2018-06-04T02:27:47.686Z,40
2018-06-04T02:28:49.693Z,48
2018-06-04T02:29:51.679Z,56
2018-06-04T02:30:53.713Z,64
2018-06-04T02:31:56.266Z,68
2018-06-04T02:32:58.547Z,76
2018-06-04T02:34:00.537Z,84
2018-06-04T02:35:02.825Z,92
2018-06-04T02:36:04.827Z,104
2018-06-04T02:37:07.499Z,112
2018-06-04T02:38:09.500Z,124
2018-06-04T02:39:11.770Z,132
2018-06-04T02:40:14.352Z,148
2018-06-04T02:41:16.367Z,160
2018-06-04T02:42:18.353Z,176
2018-06-04T02:43:20.352Z,192
2018-06-04T02:44:22.775Z,208
2018-06-04T02:45:25.057Z,224
2018-06-04T02:46:27.725Z,240
2018-06-04T02:47:30.012Z,256
2018-06-04T02:48:32.285Z,280
2018-06-04T02:49:34.665Z,300
2018-06-04T02:50:37.040Z,320
2018-06-04T02:51:39.329Z,340
2018-06-04T02:52:41.711Z,368
2018-06-04T02:53:43.721Z,392
2018-06-04T02:54:45.988Z,416
2018-06-04T02:55:47.993Z,444
2018-06-04T02:56:50.276Z,468
2018-06-04T02:57:52.651Z,500
2018-06-04T02:58:55.038Z,524
2018-06-04T02:59:57.045Z,552
2018-06-04T03:00:59.049Z,584
2018-06-04T03:02:01.423Z,612
2018-06-04T03:03:04.035Z,644
2018-06-04T03:04:06.008Z,680
2018-06-04T03:05:08.012Z,708
2018-06-04T03:06:10.304Z,744
2018-06-04T03:07:12.605Z,780
2018-06-04T03:08:14.881Z,816
2018-06-04T03:09:16.910Z,852
2018-06-04T03:10:19.181Z,892
2018-06-04T03:11:21.181Z,924
2018-06-04T03:12:23.477Z,964
2018-06-04T03:13:25.476Z,996
2018-06-04T03:14:27.468Z,1036
2018-06-04T03:15:29.459Z,1072
2018-06-04T03:16:31.467Z,1108
2018-06-04T03:17:33.465Z,1148
2018-06-04T03:18:35.745Z,1188
2018-06-04T03:19:37.743Z,1228
2018-06-04T03:20:39.734Z,1264
2018-06-04T03:21:41.736Z,1304
2018-06-04T03:22:43.736Z,1348
2018-06-04T03:23:45.735Z,1388
2018-06-04T03:24:47.742Z,1436
2018-06-04T03:25:49.721Z,1480
2018-06-04T03:26:51.716Z,1520
2018-06-04T03:27:53.727Z,1564
2018-06-04T03:28:55.718Z,1608
2018-06-04T03:29:58.104Z,1648
2018-06-04T03:31:00.386Z,1684
2018-06-04T03:32:02.946Z,1732
2018-06-04T03:33:05.636Z,1780
2018-06-04T03:34:07.625Z,1820
2018-06-04T03:35:09.916Z,1868
2018-06-04T03:36:11.914Z,1908
2018-06-04T03:37:13.911Z,1952
2018-06-04T03:38:15.906Z,1996
2018-06-04T03:39:18.185Z,2060
2018-06-04T03:40:20.174Z,2104
2018-06-04T03:41:22.167Z,2148
2018-06-04T03:42:24.180Z,2192
2018-06-04T03:43:26.175Z,2236
2018-06-04T03:44:28.171Z,2280
2018-06-04T03:45:30.171Z,2324
2018-06-04T03:46:32.169Z,2364
2018-06-04T03:47:34.168Z,2400
2018-06-04T03:48:36.438Z,2448
2018-06-04T03:49:38.727Z,2492
2018-06-04T03:50:41.399Z,2532
2018-06-04T03:51:43.394Z,2572
2018-06-04T03:52:45.387Z,2608
2018-06-04T03:53:47.382Z,2644
2018-06-04T03:54:49.377Z,2676
2018-06-04T03:55:51.768Z,2712
2018-06-04T03:56:53.759Z,2760
2018-06-04T03:57:55.760Z,2792
2018-06-04T03:58:57.753Z,2820
2018-06-04T03:59:59.746Z,2860
2018-06-04T04:01:01.749Z,2900
2018-06-04T04:02:03.753Z,2936
2018-06-04T04:03:05.743Z,2980
2018-06-04T04:04:07.741Z,3024
2018-06-04T04:05:09.729Z,3076
2018-06-04T04:06:11.726Z,3128
2018-06-04T04:07:13.721Z,3168
2018-06-04T04:08:15.774Z,3228
2018-06-04T04:09:17.717Z,3300
2018-06-04T04:10:19.713Z,3384
2018-06-04T04:11:21.699Z,3536
2018-06-04T04:12:23.700Z,3640
2018-06-04T04:13:25.703Z,3672
2018-06-04T04:14:27.708Z,3696
2018-06-04T04:15:29.705Z,3792
2018-06-04T04:16:31.701Z,4072
2018-06-04T04:17:33.701Z,4104
2018-06-04T04:18:35.689Z,4080
2018-06-04T04:19:37.688Z,4004
2018-06-04T04:20:39.682Z,4320
2018-06-04T04:21:41.678Z,4212
2018-06-04T04:22:43.686Z,4408
2018-06-04T04:23:45.673Z,4536
2018-06-04T04:24:48.058Z,4380
2018-06-04T04:25:50.053Z,4600
2018-06-04T04:26:52.047Z,4892
2018-06-04T04:27:54.078Z,4396
2018-06-04T04:28:56.430Z,5348
2018-06-04T04:29:58.432Z,5428
2018-06-04T04:31:00.422Z,4904
2018-06-04T04:32:02.409Z,5432
2018-06-04T04:33:04.698Z,4592
2018-06-04T04:34:06.695Z,4072
2018-06-04T04:35:08.696Z,3996
2018-06-04T04:36:10.690Z,4048
2018-06-04T04:37:12.700Z,4292
2018-06-04T04:38:14.703Z,4368
2018-06-04T04:39:17.000Z,4636
2018-06-04T04:40:19.278Z,5012
2018-06-04T04:41:21.280Z,4928
2018-06-04T04:42:23.275Z,5012
2018-06-04T04:43:25.559Z,4952
2018-06-04T04:44:27.556Z,5036
2018-06-04T04:45:29.564Z,4936
2018-06-04T04:46:31.543Z,4964
2018-06-04T04:47:33.543Z,5204
2018-06-04T04:48:35.542Z,4956
2018-06-04T04:49:37.536Z,4848
2018-06-04T04:50:39.532Z,4868
2018-06-04T04:51:41.531Z,4524
2018-06-04T04:52:43.815Z,4428
2018-06-04T04:53:45.813Z,4812
2018-06-04T04:54:47.806Z,5048
2018-06-04T04:55:49.794Z,5212
2018-06-04T04:56:51.785Z,5468
2018-06-04T04:57:53.793Z,6372
2018-06-04T04:58:56.356Z,5824
2018-06-04T04:59:58.632Z,5968
2018-06-04T05:01:00.918Z,6104
2018-06-04T05:02:03.301Z,6128
2018-06-04T05:03:05.602Z,6076
2018-06-04T05:04:07.602Z,6348
2018-06-04T05:05:09.892Z,6176
2018-06-04T05:06:11.888Z,6384
2018-06-04T05:07:13.892Z,6300
2018-06-04T05:08:15.881Z,6380
2018-06-04T05:09:17.886Z,6632
2018-06-04T05:10:20.267Z,6192
2018-06-04T05:11:22.262Z,6468
2018-06-04T05:12:24.250Z,6088
2018-06-04T05:13:26.253Z,6312
2018-06-04T05:14:28.246Z,5788
2018-06-04T05:15:30.248Z,5772
2018-06-04T05:16:32.905Z,6436
2018-06-04T05:17:34.904Z,6500
2018-06-04T05:18:36.903Z,6124
2018-06-04T05:19:39.167Z,6320
2018-06-04T05:20:41.172Z,5844
2018-06-04T05:21:43.560Z,6200
2018-06-04T05:22:45.561Z,6276
2018-06-04T05:23:47.561Z,5788
2018-06-04T05:24:49.557Z,5600
2018-06-04T05:25:51.565Z,5744
2018-06-04T05:26:53.558Z,6452
2018-06-04T05:27:55.554Z,6772
2018-06-04T05:28:57.569Z,7940
2018-06-04T05:29:59.563Z,7604
2018-06-04T05:31:01.563Z,6832
2018-06-04T05:32:03.849Z,7168
2018-06-04T05:33:06.422Z,6684
2018-06-04T05:34:08.426Z,6784
2018-06-04T05:35:10.424Z,8368
2018-06-04T05:36:12.420Z,6540
2018-06-04T05:37:14.411Z,7012
2018-06-04T05:38:16.424Z,7048
2018-06-04T05:39:18.425Z,7320
2018-06-04T05:40:20.716Z,6424
2018-06-04T05:41:22.720Z,8044
2018-06-04T05:42:24.800Z,7496
2018-06-04T05:43:26.708Z,6744
2018-06-04T05:44:28.999Z,7408
2018-06-04T05:45:31.276Z,8752
2018-06-04T05:46:33.569Z,8744
2018-06-04T05:47:35.939Z,7892
2018-06-04T05:48:37.934Z,8356
2018-06-04T05:49:39.933Z,10240
2018-06-04T05:50:41.928Z,9844
2018-06-04T05:51:43.922Z,10472
2018-06-04T05:52:45.935Z,9936
2018-06-04T05:53:47.922Z,9316
2018-06-04T05:54:50.483Z,10940
2018-06-04T05:55:52.477Z,8324
2018-06-04T05:56:54.482Z,8100
2018-06-04T05:57:56.485Z,9136
2018-06-04T05:58:58.483Z,8904
2018-06-04T06:00:00.469Z,7728
2018-06-04T06:01:02.480Z,8528
2018-06-04T06:02:04.774Z,8200
2018-06-04T06:03:06.778Z,8496
2018-06-04T06:04:08.771Z,9624
2018-06-04T06:05:11.062Z,9892
2018-06-04T06:06:13.049Z,10312
2018-06-04T06:07:15.322Z,9428
2018-06-04T06:08:17.314Z,7760
2018-06-04T06:09:19.334Z,11140
2018-06-04T06:10:21.705Z,12396
2018-06-04T06:11:23.715Z,12376
2018-06-04T06:12:26.098Z,8848
2018-06-04T06:13:28.376Z,8944
2018-06-04T06:14:30.373Z,12588
2018-06-04T06:15:32.381Z,12784
2018-06-04T06:16:34.678Z,8704
2018-06-04T06:17:37.336Z,8932
2018-06-04T06:18:39.341Z,11308
2018-06-04T06:19:41.638Z,8876
2018-06-04T06:20:43.954Z,7912
2018-06-04T06:21:45.960Z,11408
2018-06-04T06:22:47.969Z,11964
2018-06-04T06:23:49.967Z,11592
2018-06-04T06:24:52.245Z,11028
2018-06-04T06:25:54.517Z,10820
2018-06-04T06:26:56.511Z,11364
2018-06-04T06:27:58.510Z,11684
2018-06-04T06:29:00.516Z,11236
2018-06-04T06:30:02.833Z,11464
2018-06-04T06:31:04.838Z,11784
2018-06-04T06:32:06.839Z,14656
2018-06-04T06:33:08.824Z,14708
2018-06-04T06:34:10.820Z,14884
2018-06-04T06:35:12.830Z,13344
2018-06-04T06:36:14.830Z,15912
2018-06-04T06:37:16.839Z,15280
2018-06-04T06:38:18.841Z,16116
2018-06-04T06:39:20.845Z,15468
2018-06-04T06:40:22.846Z,15896
2018-06-04T06:41:24.845Z,15492
2018-06-04T06:42:26.856Z,16180
2018-06-04T06:43:28.851Z,16472
2018-06-04T06:44:30.847Z,14436
2018-06-04T06:45:32.859Z,12508
2018-06-04T06:46:35.193Z,12980
2018-06-04T06:47:37.254Z,12948
2018-06-04T06:48:39.293Z,9440
2018-06-04T06:49:41.350Z,9852
2018-06-04T06:50:43.438Z,9612
2018-06-04T06:51:45.474Z,9660
2018-06-04T06:52:47.571Z,9268
2018-06-04T06:53:49.626Z,8672
2018-06-04T06:54:51.714Z,8204
2018-06-04T06:55:53.764Z,8012
2018-06-04T06:56:56.148Z,8060
2018-06-04T06:57:58.206Z,11608
2018-06-04T06:59:00.233Z,11984
2018-06-04T07:00:02.272Z,11816
2018-06-04T07:01:04.990Z,12816
2018-06-04T07:02:07.105Z,13420
2018-06-04T07:03:09.236Z,13888
2018-06-04T07:04:11.280Z,15256
2018-06-04T07:05:13.329Z,14420
2018-06-04T07:06:15.437Z,14240
2018-06-04T07:07:17.480Z,14916
2018-06-04T07:08:19.656Z,14300
2018-06-04T07:09:21.696Z,14576
2018-06-04T07:10:23.735Z,13108
2018-06-04T07:11:25.783Z,12644
2018-06-04T07:12:27.898Z,13752
2018-06-04T07:13:29.939Z,15688
2018-06-04T07:14:32.094Z,16576
2018-06-04T07:15:34.490Z,19456
2018-06-04T07:16:36.540Z,20576
2018-06-04T07:17:38.575Z,19776
2018-06-04T07:18:40.621Z,15756
2018-06-04T07:19:42.669Z,14520
2018-06-04T07:20:44.710Z,14324
2018-06-04T07:21:46.749Z,14748
2018-06-04T07:22:49.088Z,13100
2018-06-04T07:23:51.813Z,12348
2018-06-04T07:24:53.851Z,16860
2018-06-04T07:25:55.896Z,21216
2018-06-04T07:26:57.923Z,22144
2018-06-04T07:27:59.926Z,21120
2018-06-04T07:29:01.931Z,17160
2018-06-04T07:30:04.221Z,16952
2018-06-04T07:31:06.216Z,15572
2018-06-04T07:32:08.227Z,14524
2018-06-04T07:33:10.614Z,14420
2018-06-04T07:34:12.901Z,14420
2018-06-04T07:35:14.901Z,14020
2018-06-04T07:36:16.897Z,16364
2018-06-04T07:37:19.185Z,16012
2018-06-04T07:38:21.188Z,14408
2018-06-04T07:39:23.200Z,13708
2018-06-04T07:40:25.206Z,14056
2018-06-04T07:41:27.222Z,13436
2018-06-04T07:42:29.503Z,13384
2018-06-04T07:43:31.886Z,14384
2018-06-04T07:44:34.829Z,16020
2018-06-04T07:45:36.896Z,17144
2018-06-04T07:46:39.982Z,16392
2018-06-04T07:47:42.524Z,16400
2018-06-04T07:48:47.790Z,17528
2018-06-04T07:49:51.696Z,17928
2018-06-04T07:50:53.696Z,19616
2018-06-04T07:51:55.693Z,22368
2018-06-04T07:52:57.692Z,23392
2018-06-04T07:53:59.692Z,19616
2018-06-04T07:55:01.732Z,17364
2018-06-04T07:56:04.030Z,16524
2018-06-04T07:57:06.029Z,15124
2018-06-04T07:58:08.051Z,14992
2018-06-04T07:59:10.335Z,14800
2018-06-04T08:00:12.612Z,14040
2018-06-04T08:01:14.618Z,14840
2018-06-04T08:02:16.624Z,14892
2018-06-04T08:03:18.627Z,17812
2018-06-04T08:04:20.685Z,16968
2018-06-04T08:05:22.637Z,15184
2018-06-04T08:06:24.949Z,14840
2018-06-04T08:07:27.237Z,15452
2018-06-04T08:08:29.234Z,15468
2018-06-04T08:09:31.236Z,14588
2018-06-04T08:10:33.243Z,13852
2018-06-04T08:11:35.239Z,13076
2018-06-04T08:12:37.258Z,13388
2018-06-04T08:13:39.247Z,14188
2018-06-04T08:14:41.253Z,13164
2018-06-04T08:15:43.263Z,12736
2018-06-04T08:16:45.256Z,12128
2018-06-04T08:17:47.268Z,12972
2018-06-04T08:18:49.263Z,14540
2018-06-04T08:19:51.844Z,15992
2018-06-04T08:20:53.857Z,17696
2018-06-04T08:21:55.854Z,22048
2018-06-04T08:23:00.246Z,25856
2018-06-04T08:24:02.258Z,26528
2018-06-04T08:25:04.247Z,25088
2018-06-04T08:26:06.526Z,23008
2018-06-04T08:27:08.530Z,22368
2018-06-04T08:28:10.528Z,22720
2018-06-04T08:29:12.556Z,20736
2018-06-04T08:30:14.535Z,17268
2018-06-04T08:31:16.549Z,15728
2018-06-04T08:32:18.540Z,14828
2018-06-04T08:33:21.137Z,14368
2018-06-04T08:34:23.410Z,16216
2018-06-04T08:35:25.407Z,15936
2018-06-04T08:36:27.419Z,14032
2018-06-04T08:37:29.416Z,12956
2018-06-04T08:38:31.469Z,12556
2018-06-04T08:39:33.434Z,12764
2018-06-04T08:40:35.800Z,12800
2018-06-04T08:41:37.804Z,12020
2018-06-04T08:42:39.810Z,11944
2018-06-04T08:43:41.805Z,13196
2018-06-04T08:44:43.807Z,15272
2018-06-04T08:45:45.870Z,16072
2018-06-04T08:46:48.221Z,14588
2018-06-04T08:47:50.239Z,13172
2018-06-04T08:48:52.232Z,12432
2018-06-04T08:49:54.243Z,12036
2018-06-04T08:50:56.247Z,11800
2018-06-04T08:51:58.690Z,11872
2018-06-04T08:53:00.691Z,11716
2018-06-04T08:54:02.688Z,11936
2018-06-04T08:55:04.698Z,12608
2018-06-04T08:56:06.685Z,13308
2018-06-04T08:57:08.674Z,12964
2018-06-04T08:58:10.681Z,12020
2018-06-04T08:59:13.067Z,11592
2018-06-04T09:00:15.069Z,11100
2018-06-04T09:01:17.367Z,11388
2018-06-04T09:02:19.378Z,11664
2018-06-04T09:03:21.384Z,11448
2018-06-04T09:04:23.381Z,10916
2018-06-04T09:05:25.765Z,11132
2018-06-04T09:06:27.769Z,12076
2018-06-04T09:07:29.765Z,12584
2018-06-04T09:08:31.771Z,12988
2018-06-04T09:09:33.772Z,14208
2018-06-04T09:10:35.784Z,15292
2018-06-04T09:11:37.769Z,19104
2018-06-04T09:12:39.768Z,20064
2018-06-04T09:13:41.772Z,20832
2018-06-04T09:14:43.766Z,20512
2018-06-04T09:15:45.785Z,18400
2018-06-04T09:16:48.148Z,17312
2018-06-04T09:17:50.436Z,18656
2018-06-04T09:18:52.771Z,18688
2018-06-04T09:19:54.822Z,17444
2018-06-04T09:20:56.856Z,17264
2018-06-04T09:21:58.905Z,17780
2018-06-04T09:23:00.948Z,17028
2018-06-04T09:24:03.295Z,15448
2018-06-04T09:25:05.782Z,13528
2018-06-04T09:26:08.136Z,12728
2018-06-04T09:27:10.167Z,12284
2018-06-04T09:28:12.224Z,12636
2018-06-04T09:29:14.266Z,12596
2018-06-04T09:30:16.337Z,13624
2018-06-04T09:31:18.378Z,13636
2018-06-04T09:32:20.435Z,14588
2018-06-04T09:33:23.263Z,15624
2018-06-04T09:34:25.305Z,15472
2018-06-04T09:35:27.355Z,16464
2018-06-04T09:36:29.418Z,18720
2018-06-04T09:37:31.464Z,19328
2018-06-04T09:38:33.518Z,22336
2018-06-04T09:39:35.941Z,22880
2018-06-04T09:40:37.981Z,20672
2018-06-04T09:41:40.467Z,18528
2018-06-04T09:42:43.821Z,16388
2018-06-04T09:43:47.396Z,14616
2018-06-04T09:44:50.274Z,13732
2018-06-04T09:45:52.598Z,13164
2018-06-04T09:46:54.654Z,12872
2018-06-04T09:47:56.687Z,12508
2018-06-04T09:48:58.736Z,12172
2018-06-04T09:50:00.774Z,11892
2018-06-04T09:51:03.225Z,11776
2018-06-04T09:52:05.273Z,11160
2018-06-04T09:53:07.313Z,11048
2018-06-04T09:54:09.382Z,11448
2018-06-04T09:55:12.662Z,12220
2018-06-04T09:56:14.704Z,12584
2018-06-04T09:57:16.750Z,12744
2018-06-04T09:58:18.810Z,13140
2018-06-04T09:59:20.859Z,13608
2018-06-04T10:00:22.945Z,14780
2018-06-04T10:01:25.412Z,16816
2018-06-04T10:02:27.738Z,18004
2018-06-04T10:03:30.012Z,18720
2018-06-04T10:04:32.147Z,19872
2018-06-04T10:05:34.590Z,21152
2018-06-04T10:06:36.647Z,23168
2018-06-04T10:07:39.079Z,25152
2018-06-04T10:08:41.116Z,26016
2018-06-04T10:09:43.470Z,26048
2018-06-04T10:10:45.506Z,24544
2018-06-04T10:11:47.554Z,23936
2018-06-04T10:12:49.589Z,22464
2018-06-04T10:13:51.872Z,23360
2018-06-04T10:14:53.879Z,22656
2018-06-04T10:15:55.882Z,19264
2018-06-04T10:16:58.282Z,17720
2018-06-04T10:18:00.309Z,17704
2018-06-04T10:19:02.313Z,17636
2018-06-04T10:20:04.317Z,15980
2018-06-04T10:21:06.359Z,15288
2018-06-04T10:22:08.798Z,15068
2018-06-04T10:23:10.844Z,14948
2018-06-04T10:24:12.896Z,14916
2018-06-04T10:25:14.945Z,14736
2018-06-04T10:26:17.276Z,15364
2018-06-04T10:27:19.313Z,15680
2018-06-04T10:28:21.354Z,13916
2018-06-04T10:29:23.411Z,12828
2018-06-04T10:30:25.455Z,12780
2018-06-04T10:31:27.510Z,12524
2018-06-04T10:32:29.767Z,12596
2018-06-04T10:33:33.386Z,12664
2018-06-04T10:34:36.106Z,13864
2018-06-04T10:35:38.920Z,15724
2018-06-04T10:36:41.937Z,15672
2018-06-04T10:37:43.989Z,14788
2018-06-04T10:38:46.302Z,14188
2018-06-04T10:39:48.421Z,13812
2018-06-04T10:40:50.513Z,13800
2018-06-04T10:41:52.588Z,13792
2018-06-04T10:42:54.693Z,14164
2018-06-04T10:43:56.874Z,14944
2018-06-04T10:44:58.921Z,15596
2018-06-04T10:46:01.003Z,15528
2018-06-04T10:47:03.086Z,14136
2018-06-04T10:48:05.149Z,13724
2018-06-04T10:49:07.373Z,13092
2018-06-04T10:50:09.810Z,12036
2018-06-04T10:51:12.275Z,11176
2018-06-04T10:52:14.317Z,10804
2018-06-04T10:53:16.898Z,11468
2018-06-04T10:54:19.175Z,11156
2018-06-04T10:55:21.175Z,11156
2018-06-04T10:56:23.468Z,11740
2018-06-04T10:57:25.472Z,12424
2018-06-04T10:58:27.567Z,12668
2018-06-04T10:59:29.574Z,12428
2018-06-04T11:00:31.616Z,13052
2018-06-04T11:01:33.905Z,12688
2018-06-04T11:02:36.227Z,12808
2018-06-04T11:03:38.613Z,13164
2018-06-04T11:04:40.618Z,14516
2018-06-04T11:05:42.616Z,16868
2018-06-04T11:06:44.617Z,19296
2018-06-04T11:07:46.901Z,21152
2018-06-04T11:08:48.908Z,21824
2018-06-04T11:09:50.929Z,21344
2018-06-04T11:10:53.225Z,21088
2018-06-04T11:11:55.532Z,20000
2018-06-04T11:12:57.921Z,17760
2018-06-04T11:13:59.927Z,16524
2018-06-04T11:15:02.489Z,15528
2018-06-04T11:16:04.508Z,14312
2018-06-04T11:17:07.086Z,14064
2018-06-04T11:18:09.108Z,14916
2018-06-04T11:19:11.132Z,16024
2018-06-04T11:20:13.154Z,16308
2018-06-04T11:21:15.153Z,17088
2018-06-04T11:22:17.188Z,18752
2018-06-04T11:23:19.169Z,20352
2018-06-04T11:24:21.202Z,21952
2018-06-04T11:25:23.206Z,22848
2018-06-04T11:26:25.225Z,24736
2018-06-04T11:27:27.242Z,26208
2018-06-04T11:28:29.630Z,27136
2018-06-04T11:29:31.653Z,28640
2018-06-04T11:30:33.706Z,30944
2018-06-04T11:31:36.097Z,33536
2018-06-04T11:32:38.122Z,34560
2018-06-04T11:33:40.116Z,32896
2018-06-04T11:34:42.136Z,33376
2018-06-04T11:35:44.138Z,24896
2018-06-04T11:36:46.427Z,20800
2018-06-04T11:37:48.431Z,16832
2018-06-04T11:38:50.435Z,15296
2018-06-04T11:39:52.438Z,13748
2018-06-04T11:40:54.468Z,12876
2018-06-04T11:41:56.472Z,13520
2018-06-04T11:42:58.479Z,14840
2018-06-04T11:44:00.534Z,15340
2018-06-04T11:45:02.495Z,15064
2018-06-04T11:46:05.077Z,16588
2018-06-04T11:47:07.104Z,20000
2018-06-04T11:48:09.128Z,23904
2018-06-04T11:49:11.132Z,29856
2018-06-04T11:50:13.127Z,29120
2018-06-04T11:51:15.164Z,24864
2018-06-04T11:52:17.169Z,21952
2018-06-04T11:53:19.178Z,21120
2018-06-04T11:54:21.184Z,19968
2018-06-04T11:55:23.188Z,20416
2018-06-04T11:56:25.207Z,22752
2018-06-04T11:57:27.656Z,23808
2018-06-04T11:58:30.350Z,23808
2018-06-04T11:59:33.026Z,25408
2018-06-04T12:00:35.050Z,27680
2018-06-04T12:01:37.045Z,27232
2018-06-04T12:02:39.386Z,26880
2018-06-04T12:03:41.387Z,31200
2018-06-04T12:04:43.411Z,30656
2018-06-04T12:05:45.415Z,25824
2018-06-04T12:06:47.411Z,20192
2018-06-04T12:07:49.418Z,18720
2018-06-04T12:08:52.003Z,18272
2018-06-04T12:09:54.009Z,17656
2018-06-04T12:10:56.020Z,18688
2018-06-04T12:11:58.032Z,20896
2018-06-04T12:13:00.034Z,23232
2018-06-04T12:14:02.046Z,22432
2018-06-04T12:15:04.428Z,20480
2018-06-04T12:16:06.453Z,19936
2018-06-04T12:17:08.470Z,19456
2018-06-04T12:18:10.500Z,18688
2018-06-04T12:19:12.807Z,17376
2018-06-04T12:20:15.084Z,16676
2018-06-04T12:21:17.089Z,16892
2018-06-04T12:22:19.089Z,17520
2018-06-04T12:23:21.384Z,18848
2018-06-04T12:24:23.391Z,20352
2018-06-04T12:25:25.662Z,20960
2018-06-04T12:26:28.050Z,21632
2018-06-04T12:27:30.054Z,22656
2018-06-04T12:28:32.059Z,22656
2018-06-04T12:29:34.071Z,22368
2018-06-04T12:30:36.063Z,20224
2018-06-04T12:31:38.074Z,18944
2018-06-04T12:32:40.082Z,18304
2018-06-04T12:33:42.083Z,17244
2018-06-04T12:34:44.083Z,16296
2018-06-04T12:35:46.086Z,15948
2018-06-04T12:36:48.377Z,15980
2018-06-04T12:37:50.660Z,15980
2018-06-04T12:38:52.660Z,15652
2018-06-04T12:39:54.674Z,15476
2018-06-04T12:40:56.667Z,15120
2018-06-04T12:41:58.673Z,15000
2018-06-04T12:43:00.675Z,15112
2018-06-04T12:44:02.958Z,15444
2018-06-04T12:45:05.251Z,15740
2018-06-04T12:46:07.251Z,15852
2018-06-04T12:47:09.532Z,15972
2018-06-04T12:48:11.582Z,15712
2018-06-04T12:49:13.541Z,15324
2018-06-04T12:50:15.822Z,15136
2018-06-04T12:51:17.832Z,14628
2018-06-04T12:52:20.109Z,14120
2018-06-04T12:53:22.113Z,13928
2018-06-04T12:54:24.121Z,14236
2018-06-04T12:55:26.509Z,14744
2018-06-04T12:56:28.524Z,15200
2018-06-04T12:59:36.759Z,14440
2018-06-04T13:00:39.041Z,14192
2018-06-04T13:01:41.038Z,14244
2018-06-04T13:02:43.047Z,14388
2018-06-04T13:03:45.053Z,14904
2018-06-04T13:04:47.391Z,15464
2018-06-04T13:05:49.764Z,16376
2018-06-04T13:06:51.751Z,17040
2018-06-04T13:07:53.757Z,17240
2018-06-04T13:08:56.327Z,17516
2018-06-04T13:09:58.328Z,17820
2018-06-04T13:11:00.622Z,17456
2018-06-04T13:12:02.992Z,17664
2018-06-04T13:13:05.002Z,17528
2018-06-04T13:14:07.013Z,17232
2018-06-04T13:15:09.020Z,17336
2018-06-04T13:16:11.315Z,17784
2018-06-04T13:17:13.594Z,17908
2018-06-04T13:18:15.603Z,16784
2018-06-04T13:19:17.606Z,16476
2018-06-04T13:20:19.905Z,16444
2018-06-04T13:21:22.217Z,16056
2018-06-04T13:22:24.211Z,15716
2018-06-04T13:23:26.209Z,16348
2018-06-04T13:24:28.212Z,16500
2018-06-04T13:25:30.213Z,16084
2018-06-04T13:26:32.221Z,15804
2018-06-04T13:27:34.227Z,15652
2018-06-04T13:28:36.929Z,15916
2018-06-04T13:29:38.931Z,16292
2018-06-04T13:30:40.923Z,16512
2018-06-04T13:31:43.218Z,16780
2018-06-04T13:32:45.222Z,16744
2018-06-04T13:33:47.225Z,16316
2018-06-04T13:34:49.232Z,16648
2018-06-04T13:35:51.236Z,17836
2018-06-04T13:36:53.242Z,17948
2018-06-04T13:37:55.235Z,17472
2018-06-04T13:38:57.231Z,17352
2018-06-04T13:39:59.531Z,17324
2018-06-04T13:41:01.531Z,17308
2018-06-04T13:42:03.533Z,18336
2018-06-04T13:43:05.539Z,19264
2018-06-04T13:44:07.533Z,20032
2018-06-04T13:45:09.542Z,20800
2018-06-04T13:46:11.836Z,20416
2018-06-04T13:47:13.825Z,19168
2018-06-04T13:48:15.826Z,17364
2018-06-04T13:49:17.830Z,16120
2018-06-04T13:50:19.866Z,15064